Current Weather

NSFA McMurdo Sound

NSFA McMurdo Sound, Antarctica (NZCM)

Report from: Friday, August 19, 2022 3:55 AM UTC
Current time: Friday, August 19, 2022 4:49 AM UTC

Nearby weather
Weather history
Weather forecast

Temperature-29.1°C (-20.4°F)
Wind chill-40.2°C (-40.3°F)
Dew point-35.5°C (-31.9°F)
Winds 8 kts (4.1 m/s, 9.2 mph) East (90°)
Visibility6.2 mi. (10 km)
Clouds Sky clear
Altimeter29.54 in.Hg (1000 mB)
Relative humidity54 %
Density altitude-5,310 ft. (-1,618 m)
Sea-level pressure100.1 kPa (1001 mB, 29.56 in.Hg)
Remarks Fully automated report
System requires maintenance
Automated weather observing station with precipitation discriminator
Flight conditions Visual Meteorological Conditions
Raw dataNZCM 190355Z AUTO 09008KT 9999 CLR M29/M35 A2954 RMK AO2 SLP010 T12911355 $
An unhandled exception has occurred. See browser dev tools for details. Reload 🗙